Gaspar Campos, Argentina
Current Conditions -  °F | °C
As of 6:00 PM on Thursday 27 Nov 2014 (Local Time) from SAME Reporting Station
Clear Clear  
Wind Chill: 95°   Ceiling: Unl
Heat Index: 95°   Visibility: 6mi
Dew Point: 32°   Wind: 14mph
Humidity: 11%   Direction: 20°NNE
Pressure: 29.68"   Gusts: NA
Location:  34.63°S, 67.69°W
Report Text: SAME 272100Z 02012KT CAVOK 35/00 Q1005
Loading
Personal Weather Stations






























Interactive Weather Map New forecast layout! Learn more

10-Day Weather Forecast

Advertisements
Track Severe Weather on mobile